Time;durP1;ratioP1;P1;durP2;ratioP2;P2;SDS_P1;SDS_P2;PMS_P1;PMS_P2;Temp;Humidity;BMP_temperature;BMP_pressure;BME280_temperature;BME280_humidity;BME280_pressure;Samples;Min_cycle;Max_cycle;Signal;HPM_P1;HPM_P2
2022/01/04 00:00:39;;;;;;;4.40;1.57;;;;;;;12.20;65.58;95712.03;5067291;28;20198;-67
2022/01/04 00:03:06;;;;;;;3.00;1.57;;;;;;;12.18;65.88;95706.16;5072114;28;20179;-68
2022/01/04 00:05:32;;;;;;;2.47;1.20;;;;;;;11.78;67.18;95691.88;5068563;28;20220;-67
2022/01/04 00:07:57;;;;;;;3.20;1.47;;;;;;;11.92;66.81;95695.34;5072693;28;20831;-68
2022/01/04 00:10:25;;;;;;;1.60;1.27;;;;;;;12.10;66.61;95684.31;5073584;28;20202;-67
2022/01/04 00:15:37;;;;;;;4.00;1.53;;;;;;;12.26;66.27;95680.50;5067961;28;20474;-68
2022/01/04 00:18:03;;;;;;;1.20;1.10;;;;;;;12.12;66.69;95681.50;5064594;28;20453;-69
2022/01/04 00:20:29;;;;;;;4.07;1.40;;;;;;;12.31;66.16;95664.16;5064480;28;20441;-70
2022/01/04 00:22:54;;;;;;;1.73;1.40;;;;;;;11.72;68.26;95663.78;5066410;28;20944;-70
2022/01/04 00:25:20;;;;;;;4.17;1.67;;;;;;;12.18;67.04;95656.25;5070208;28;20301;-69
2022/01/04 00:27:46;;;;;;;2.00;1.20;;;;;;;12.13;66.95;95656.84;5069127;28;20554;-68
2022/01/04 00:30:11;;;;;;;3.63;1.43;;;;;;;11.83;67.78;95652.72;5073050;28;20203;-71
2022/01/04 00:32:37;;;;;;;2.90;1.10;;;;;;;12.32;66.60;95650.00;5073694;28;20322;-68
2022/01/04 00:35:03;;;;;;;2.43;1.30;;;;;;;12.25;66.76;95646.56;5067806;28;20179;-66
2022/01/04 00:37:28;;;;;;;1.97;1.27;;;;;;;12.11;67.23;95643.13;5073211;28;20229;-68
2022/01/04 00:39:54;;;;;;;1.77;1.10;;;;;;;12.13;67.33;95641.91;5066659;28;20210;-72
2022/01/04 00:42:19;;;;;;;3.47;1.50;;;;;;;12.09;67.68;95634.63;5073290;28;20240;-69
2022/01/04 00:44:45;;;;;;;3.17;1.03;;;;;;;12.25;66.88;95625.53;5073505;28;20473;-67
2022/01/04 00:47:11;;;;;;;1.57;1.00;;;;;;;11.80;68.47;95621.63;5072939;28;20197;-67
2022/01/04 00:49:37;;;;;;;2.50;1.60;;;;;;;12.22;67.69;95613.63;5073082;28;20201;-68
2022/01/04 00:52:04;;;;;;;2.30;1.10;;;;;;;12.22;67.63;95607.59;5061544;28;20921;-66
2022/01/04 00:54:29;;;;;;;2.03;1.37;;;;;;;12.06;67.65;95604.34;5073501;28;20428;-68
2022/01/04 00:56:55;;;;;;;2.40;1.40;;;;;;;12.22;67.50;95597.88;5071952;28;20420;-70
2022/01/04 00:59:20;;;;;;;1.50;1.13;;;;;;;11.91;68.48;95601.84;5064426;28;20317;-67
2022/01/04 01:01:46;;;;;;;2.50;1.27;;;;;;;12.09;67.94;95596.06;5072897;28;20174;-67
2022/01/04 01:04:12;;;;;;;3.53;1.37;;;;;;;12.24;67.76;95601.09;5072821;28;20308;-68
2022/01/04 01:06:38;;;;;;;2.73;1.20;;;;;;;11.74;68.83;95583.03;5061022;28;20183;-69
2022/01/04 01:09:04;;;;;;;1.30;1.10;;;;;;;12.00;68.48;95575.44;5070162;28;20684;-69
2022/01/04 01:11:29;;;;;;;2.17;1.37;;;;;;;12.08;68.28;95564.75;5073040;28;20425;-67
2022/01/04 01:13:55;;;;;;;5.03;1.50;;;;;;;12.10;68.57;95568.78;5072516;28;20564;-68
2022/01/04 01:16:21;;;;;;;1.40;1.30;;;;;;;12.28;68.00;95556.84;5072377;28;20551;-68
2022/01/04 01:18:47;;;;;;;1.70;1.10;;;;;;;12.28;67.75;95551.59;5072311;28;20542;-68
2022/01/04 01:21:13;;;;;;;4.77;1.40;;;;;;;12.34;67.53;95542.94;5069422;28;20603;-68
2022/01/04 01:23:39;;;;;;;1.60;1.50;;;;;;;12.40;67.54;95552.59;5070354;28;20423;-67
2022/01/04 01:26:06;;;;;;;4.20;1.60;;;;;;;12.47;67.38;95546.53;5071596;28;20467;-66
2022/01/04 01:28:33;;;;;;;2.20;1.27;;;;;;;12.37;67.78;95536.44;5063680;28;20848;-69
2022/01/04 01:30:59;;;;;;;1.97;1.60;;;;;;;12.21;68.40;95535.84;5070947;28;20812;-67
2022/01/04 01:33:24;;;;;;;2.10;1.40;;;;;;;12.22;68.79;95541.94;5072329;28;20428;-66
2022/01/04 01:35:50;;;;;;;2.53;1.53;;;;;;;12.37;67.79;95532.00;5066753;28;20182;-68
2022/01/04 01:38:17;;;;;;;2.17;1.30;;;;;;;12.29;68.28;95519.88;5072009;28;20195;-68
2022/01/04 01:40:43;;;;;;;2.23;1.40;;;;;;;12.12;68.97;95518.69;5064520;28;20205;-68
2022/01/04 01:43:09;;;;;;;1.60;1.50;;;;;;;12.07;69.41;95505.34;5069795;28;20898;-68
2022/01/04 01:45:35;;;;;;;2.23;1.70;;;;;;;12.21;69.05;95490.41;5066021;28;20420;-68
2022/01/04 01:48:01;;;;;;;2.03;1.70;;;;;;;12.28;68.62;95489.41;5071651;28;20482;-68
2022/01/04 01:50:26;;;;;;;3.43;1.73;;;;;;;12.40;67.98;95479.06;5071487;28;20441;-67
2022/01/04 01:52:53;;;;;;;1.90;1.60;;;;;;;12.28;68.46;95459.69;5071800;28;20261;-69
2022/01/04 01:55:20;;;;;;;1.97;1.40;;;;;;;12.16;68.90;95453.44;5071765;28;20265;-67
2022/01/04 01:57:46;;;;;;;2.93;1.90;;;;;;;12.05;69.43;95453.06;5070475;28;20424;-65
2022/01/04 02:00:14;;;;;;;3.03;1.97;;;;;;;12.21;69.20;95440.53;5070919;28;20440;-68
2022/01/04 02:02:40;;;;;;;4.90;1.80;;;;;;;11.95;69.28;95445.56;5065229;28;20568;-70
2022/01/04 02:05:06;;;;;;;2.23;1.60;;;;;;;11.91;69.67;95459.31;5064033;28;21230;-68
2022/01/04 02:07:33;;;;;;;3.00;1.80;;;;;;;11.96;69.55;95452.44;5071654;28;20274;-68
2022/01/04 02:10:03;;;;;;;3.10;1.63;;;;;;;11.96;69.48;95430.63;5071146;28;20443;-68
2022/01/04 02:12:31;;;;;;;2.50;1.73;;;;;;;11.74;69.89;95422.97;5071546;28;20424;-66
2022/01/04 02:14:57;;;;;;;3.73;1.60;;;;;;;12.13;68.71;95426.59;5071374;28;20527;-65
2022/01/04 02:17:23;;;;;;;3.30;1.90;;;;;;;12.16;68.35;95419.31;5071461;28;20428;-67
2022/01/04 02:19:48;;;;;;;3.37;2.27;;;;;;;11.84;69.52;95410.22;5067670;28;20207;-67
2022/01/04 02:22:14;;;;;;;3.13;2.47;;;;;;;11.98;69.08;95423.38;5059280;28;20420;-69
2022/01/04 02:24:39;;;;;;;8.53;3.00;;;;;;;12.00;68.76;95420.56;5071576;28;20178;-68
2022/01/04 02:27:05;;;;;;;5.23;2.33;;;;;;;11.92;69.22;95406.59;5071107;28;20323;-66
2022/01/04 02:29:31;;;;;;;1.90;1.73;;;;;;;11.91;68.77;95376.09;5069966;28;20197;-66
2022/01/04 02:31:56;;;;;;;3.77;2.27;;;;;;;12.17;68.11;95384.16;5071095;28;20190;-69
2022/01/04 02:34:22;;;;;;;2.07;1.90;;;;;;;12.40;66.93;95376.59;5069873;28;20225;-67
2022/01/04 02:36:47;;;;;;;2.93;1.77;;;;;;;11.96;68.09;95383.38;5067031;28;20269;-67
2022/01/04 02:39:13;;;;;;;3.00;1.87;;;;;;;12.17;67.55;95355.28;5069883;28;20206;-67
2022/01/04 02:41:38;;;;;;;3.77;2.17;;;;;;;12.37;66.57;95348.13;5065234;28;20602;-69
2022/01/04 02:44:04;;;;;;;2.70;2.30;;;;;;;12.29;66.80;95327.34;5062675;28;20198;-67
2022/01/04 02:46:30;;;;;;;3.07;1.83;;;;;;;12.37;66.71;95334.97;5071127;28;20197;-67
2022/01/04 02:48:56;;;;;;;2.97;1.80;;;;;;;12.44;66.02;95327.06;5070237;28;20282;-67
2022/01/04 02:51:23;;;;;;;3.30;1.60;;;;;;;12.38;66.17;95325.31;5060212;28;20190;-67
2022/01/04 02:53:49;;;;;;;3.17;1.63;;;;;;;12.14;66.64;95338.91;5054165;28;20179;-66
2022/01/04 02:56:15;;;;;;;2.30;2.00;;;;;;;12.19;66.81;95306.00;5068014;28;20838;-66
2022/01/04 02:58:41;;;;;;;1.70;1.60;;;;;;;12.26;65.91;95304.13;5065717;28;20458;-67
2022/01/04 03:01:07;;;;;;;3.03;2.00;;;;;;;12.31;65.77;95306.94;5070939;28;20185;-66
2022/01/04 03:03:34;;;;;;;2.20;2.00;;;;;;;12.54;64.92;95300.34;5070657;28;20413;-67
2022/01/04 03:06:00;;;;;;;2.87;1.63;;;;;;;12.44;65.04;95295.56;5065299;28;20251;-66
2022/01/04 03:08:25;;;;;;;2.67;1.73;;;;;;;12.59;64.65;95297.91;5071008;28;20413;-67
2022/01/04 03:10:51;;;;;;;2.77;1.90;;;;;;;12.52;64.91;95297.94;5070758;28;20675;-67
2022/01/04 03:13:17;;;;;;;2.97;1.77;;;;;;;12.52;65.14;95289.25;5060868;28;20261;-67
2022/01/04 03:15:46;;;;;;;1.73;1.63;;;;;;;12.57;64.56;95297.31;5067568;28;20574;-67
2022/01/04 03:18:12;;;;;;;1.97;1.67;;;;;;;12.53;65.04;95282.97;5069320;28;20469;-67
2022/01/04 03:20:37;;;;;;;1.97;1.77;;;;;;;12.71;64.05;95280.44;5071068;28;20582;-67
2022/01/04 03:23:08;;;;;;;1.60;1.50;;;;;;;12.87;63.87;95278.28;5067018;28;20182;-66
2022/01/04 03:25:35;;;;;;;1.40;1.30;;;;;;;12.65;64.37;95273.41;5062593;28;20185;-66
2022/01/04 03:28:00;;;;;;;2.43;1.70;;;;;;;12.26;65.95;95264.72;5070974;28;20807;-65
2022/01/04 03:30:26;;;;;;;2.70;1.60;;;;;;;12.69;64.86;95261.44;5070368;28;20511;-67
2022/01/04 03:32:52;;;;;;;1.90;1.60;;;;;;;12.94;64.32;95263.28;5071216;28;20178;-67
2022/01/04 03:35:17;;;;;;;1.90;1.70;;;;;;;12.56;65.04;95261.53;5065257;28;20545;-69
2022/01/04 03:37:43;;;;;;;4.87;1.80;;;;;;;12.49;65.69;95252.88;5070947;28;20178;-67
2022/01/04 03:40:09;;;;;;;1.70;1.60;;;;;;;12.49;65.42;95239.75;5064059;28;20191;-67
2022/01/04 03:42:35;;;;;;;1.60;1.30;;;;;;;12.73;64.54;95232.91;5070807;28;20425;-67
2022/01/04 03:45:00;;;;;;;1.60;1.33;;;;;;;12.28;66.19;95228.56;5070497;28;20930;-67
2022/01/04 03:47:26;;;;;;;1.40;1.30;;;;;;;12.21;66.18;95223.34;5070763;28;20187;-68
2022/01/04 03:49:51;;;;;;;4.90;1.50;;;;;;;12.63;65.34;95222.09;5070490;28;20200;-66
2022/01/04 03:52:17;;;;;;;1.40;1.30;;;;;;;12.59;65.67;95219.09;5070482;28;20193;-67
2022/01/04 03:54:43;;;;;;;1.93;1.20;;;;;;;12.53;66.08;95206.78;5073580;28;20170;-67
2022/01/04 03:57:08;;;;;;;2.13;1.50;;;;;;;12.81;65.01;95210.81;5074141;28;20182;-69
2022/01/04 03:59:34;;;;;;;2.03;1.67;;;;;;;12.47;65.93;95202.41;5073616;28;20207;-66
2022/01/04 04:01:59;;;;;;;3.50;1.60;;;;;;;12.15;66.53;95192.69;5074267;28;20547;-66
2022/01/04 04:04:25;;;;;;;1.87;1.47;;;;;;;12.05;67.87;95192.34;5072571;28;20262;-68
2022/01/04 04:06:51;;;;;;;1.93;1.47;;;;;;;12.53;66.17;95183.97;5070246;28;20213;-66
2022/01/04 04:09:16;;;;;;;1.20;1.10;;;;;;;12.12;67.03;95185.25;5073540;28;20424;-69
2022/01/04 04:11:42;;;;;;;1.37;1.27;;;;;;;12.31;66.81;95191.38;5071692;28;20692;-67
2022/01/04 04:14:08;;;;;;;1.60;1.20;;;;;;;12.37;66.92;95182.63;5064269;28;20174;-69
2022/01/04 04:16:33;;;;;;;1.57;1.40;;;;;;;12.76;65.63;95174.69;5074902;28;20177;-67
2022/01/04 04:18:59;;;;;;;1.67;1.20;;;;;;;12.24;67.73;95174.84;5065310;28;20202;-68
2022/01/04 04:21:25;;;;;;;1.40;1.30;;;;;;;12.39;67.56;95164.84;5072322;28;20174;-65
2022/01/04 04:23:50;;;;;;;1.23;1.13;;;;;;;12.63;66.80;95154.56;5070165;28;20170;-67
2022/01/04 04:26:16;;;;;;;3.07;1.27;;;;;;;12.71;66.40;95149.03;5072511;28;20262;-66
2022/01/04 04:28:42;;;;;;;1.60;1.27;;;;;;;12.13;68.74;95150.09;5072188;28;20171;-67
2022/01/04 04:31:07;;;;;;;1.47;1.00;;;;;;;12.18;68.29;95157.34;5073232;28;20711;-68
2022/01/04 04:33:33;;;;;;;3.87;1.30;;;;;;;12.52;67.49;95153.44;5073365;28;20171;-69
2022/01/04 04:35:59;;;;;;;1.83;1.30;;;;;;;12.29;68.38;95149.56;5067731;28;20178;-67
2022/01/04 04:38:24;;;;;;;2.13;1.20;;;;;;;12.25;69.69;95151.03;5073284;28;20206;-68
2022/01/04 04:40:50;;;;;;;1.97;1.40;;;;;;;12.38;68.80;95144.84;5066646;28;20243;-66
2022/01/04 04:43:15;;;;;;;1.20;1.03;;;;;;;12.61;67.83;95140.81;5072798;28;20178;-67
2022/01/04 04:45:41;;;;;;;1.27;1.13;;;;;;;12.69;67.79;95135.31;5058898;28;20187;-67
2022/01/04 04:48:06;;;;;;;2.63;1.50;;;;;;;12.66;68.32;95127.84;5051471;28;20708;-67
2022/01/04 04:50:33;;;;;;;2.00;1.20;;;;;;;12.43;68.87;95120.56;5060804;28;20198;-68
2022/01/04 04:52:59;;;;;;;1.13;1.03;;;;;;;12.37;69.38;95111.72;5053071;28;20639;-68
2022/01/04 04:55:25;;;;;;;1.30;1.20;;;;;;;12.33;69.48;95113.19;5052912;28;20426;-67
2022/01/04 04:57:50;;;;;;;2.20;1.37;;;;;;;12.25;69.85;95111.63;5060965;28;20424;-66
2022/01/04 05:00:16;;;;;;;1.77;1.67;;;;;;;11.78;71.53;95105.88;5052488;28;20215;-68
2022/01/04 05:02:42;;;;;;;1.70;1.20;;;;;;;12.23;70.63;95099.72;5053323;28;20180;-66
2022/01/04 05:05:08;;;;;;;1.40;1.30;;;;;;;12.63;69.19;95098.59;5061422;28;20264;-65
2022/01/04 05:07:34;;;;;;;2.27;1.47;;;;;;;12.13;70.46;95101.00;5061267;28;20184;-66
2022/01/04 05:10:02;;;;;;;1.43;1.33;;;;;;;12.33;70.21;95080.84;5052287;28;20537;-66
2022/01/04 05:12:28;;;;;;;1.67;1.57;;;;;;;12.24;70.75;95091.63;5052697;28;20836;-67
2022/01/04 05:14:53;;;;;;;3.17;2.10;;;;;;;12.34;70.27;95092.97;5053551;28;20418;-67
2022/01/04 05:17:19;;;;;;;1.53;1.30;;;;;;;12.39;70.17;95087.88;5052301;28;20174;-68
2022/01/04 05:19:45;;;;;;;3.60;1.60;;;;;;;12.48;70.47;95080.50;5053110;28;20732;-67
2022/01/04 05:22:10;;;;;;;2.33;1.37;;;;;;;12.57;69.73;95084.50;5057887;28;20194;-65
2022/01/04 05:24:36;;;;;;;1.30;1.20;;;;;;;12.54;70.06;95087.53;5051845;28;20290;-66
2022/01/04 05:27:01;;;;;;;2.13;1.37;;;;;;;12.55;70.38;95076.03;5052913;28;20207;-67
2022/01/04 05:29:27;;;;;;;1.60;1.50;;;;;;;12.38;70.46;95063.44;5060318;28;20581;-66
2022/01/04 05:31:53;;;;;;;3.63;1.50;;;;;;;12.57;69.94;95066.09;5062236;28;20623;-67
2022/01/04 05:34:18;;;;;;;3.10;1.50;;;;;;;12.39;70.94;95067.66;5074053;28;20655;-67
2022/01/04 05:36:44;;;;;;;5.30;3.13;;;;;;;12.13;72.31;95053.75;5064427;28;20183;-68
2022/01/04 05:39:09;;;;;;;3.37;1.40;;;;;;;12.39;71.25;95056.38;5062586;28;20298;-68
2022/01/04 05:41:35;;;;;;;1.60;1.30;;;;;;;12.39;71.50;95030.91;5057167;28;20175;-68
2022/01/04 05:44:01;;;;;;;2.43;1.40;;;;;;;12.34;72.15;95030.75;5063552;28;20260;-68
2022/01/04 05:46:26;;;;;;;3.23;1.40;;;;;;;12.31;72.01;95038.25;5055168;28;20636;-67
2022/01/04 05:48:52;;;;;;;2.03;1.50;;;;;;;12.27;72.63;95019.50;5060308;28;20266;-67
2022/01/04 05:51:18;;;;;;;2.23;1.53;;;;;;;12.44;72.20;95007.41;5055597;28;20223;-66
2022/01/04 05:53:43;;;;;;;2.20;1.70;;;;;;;12.42;72.13;94998.13;5056724;28;20182;-67
2022/01/04 05:56:09;;;;;;;3.23;2.07;;;;;;;12.29;73.18;94993.81;5054111;28;20183;-66
2022/01/04 05:58:34;;;;;;;1.80;1.60;;;;;;;12.56;72.20;94993.56;5056902;28;20242;-66
2022/01/04 06:01:00;;;;;;;5.97;2.07;;;;;;;12.37;72.78;94992.75;5051949;28;20274;-66
2022/01/04 06:03:26;;;;;;;2.53;1.53;;;;;;;12.45;72.89;94992.44;5067486;28;20175;-68
2022/01/04 06:05:52;;;;;;;3.47;1.47;;;;;;;12.53;72.74;94986.94;5051672;28;20178;-66
2022/01/04 06:08:19;;;;;;;1.47;1.37;;;;;;;12.56;72.99;94978.59;5051330;28;20210;-70
2022/01/04 06:10:50;;;;;;;5.17;3.10;;;;;;;12.52;73.29;94979.25;5051668;28;20440;-67
2022/01/04 06:15:59;;;;;;;2.43;1.17;;;;;;;12.49;73.28;94971.78;5052849;28;20426;-68
2022/01/04 06:18:25;;;;;;;2.50;1.47;;;;;;;12.47;73.62;94963.34;5050099;28;20457;-67
2022/01/04 06:20:51;;;;;;;2.83;1.50;;;;;;;12.21;74.68;94959.97;5043403;28;20195;-69
2022/01/04 06:23:16;;;;;;;1.53;1.33;;;;;;;12.46;74.16;94940.72;5054320;28;20254;-66
2022/01/04 06:25:42;;;;;;;2.83;1.30;;;;;;;12.55;73.60;94939.41;5051570;28;20421;-66
2022/01/04 06:28:08;;;;;;;1.70;1.17;;;;;;;12.59;73.40;94936.13;5051241;28;20689;-67
2022/01/04 06:30:34;;;;;;;1.80;1.30;;;;;;;12.55;73.83;94934.94;5051363;28;20467;-64
2022/01/04 06:32:59;;;;;;;1.97;1.50;;;;;;;12.82;72.74;94931.22;5051638;28;20492;-68
2022/01/04 06:35:27;;;;;;;2.07;1.70;;;;;;;12.51;73.86;94925.09;5051569;28;20180;-66
2022/01/04 06:37:53;;;;;;;1.90;1.23;;;;;;;12.51;74.31;94930.34;5059805;28;20668;-66
2022/01/04 06:40:18;;;;;;;1.47;1.37;;;;;;;12.63;73.88;94919.91;5053320;28;20449;-69
2022/01/04 06:42:44;;;;;;;2.23;1.40;;;;;;;12.56;74.21;94926.03;5052252;28;20424;-67
2022/01/04 06:45:11;;;;;;;2.90;1.43;;;;;;;12.58;74.00;94928.47;5053590;28;20649;-68
2022/01/04 06:47:37;;;;;;;4.37;1.70;;;;;;;12.59;73.89;94927.44;5051415;28;20187;-69
2022/01/04 06:50:04;;;;;;;2.57;2.30;;;;;;;12.65;73.48;94923.91;5051269;28;20433;-66
2022/01/04 06:52:29;;;;;;;1.70;1.50;;;;;;;12.68;73.35;94920.84;5051591;28;20176;-66
2022/01/04 06:54:55;;;;;;;1.93;1.60;;;;;;;12.73;73.54;94925.44;5050662;28;20578;-67
2022/01/04 06:57:21;;;;;;;1.57;1.47;;;;;;;12.77;73.23;94926.63;5062157;28;20181;-66
2022/01/04 06:59:46;;;;;;;3.00;1.40;;;;;;;12.49;74.61;94927.13;5071049;28;20217;-68
2022/01/04 07:02:12;;;;;;;3.87;1.50;;;;;;;12.21;75.72;94928.47;5071612;28;20186;-66
2022/01/04 07:04:37;;;;;;;2.27;1.93;;;;;;;12.67;74.31;94914.00;5071300;28;20253;-67
2022/01/04 07:07:03;;;;;;;1.77;1.30;;;;;;;12.59;74.56;94916.94;5054675;28;20175;-67
2022/01/04 07:09:29;;;;;;;2.57;1.10;;;;;;;12.64;74.00;94911.81;5069560;28;20665;-67
2022/01/04 07:11:54;;;;;;;1.50;1.40;;;;;;;12.85;73.72;94901.84;5071435;28;20261;-70
2022/01/04 07:14:20;;;;;;;3.53;1.40;;;;;;;12.64;74.43;94901.28;5071586;28;20204;-67
2022/01/04 07:16:46;;;;;;;2.40;1.27;;;;;;;12.78;73.90;94895.88;5071567;28;20201;-69
2022/01/04 07:19:11;;;;;;;2.27;1.50;;;;;;;12.78;74.11;94893.25;5070674;28;20701;-67
2022/01/04 07:21:37;;;;;;;4.47;1.73;;;;;;;12.57;75.31;94890.88;5070200;28;20555;-67
2022/01/04 07:24:04;;;;;;;1.10;1.00;;;;;;;12.51;75.52;94878.63;5068892;28;20174;-66
2022/01/04 07:26:29;;;;;;;2.10;1.27;;;;;;;12.77;74.57;94884.56;5068632;28;20202;-66
2022/01/04 07:28:55;;;;;;;1.20;1.00;;;;;;;12.53;75.59;94888.91;5074970;28;20452;-66
2022/01/04 07:31:21;;;;;;;4.17;1.20;;;;;;;12.82;74.65;94884.69;5075377;28;20618;-68
2022/01/04 07:33:47;;;;;;;1.93;1.47;;;;;;;12.60;75.91;94895.69;5072437;28;20194;-67
2022/01/04 07:36:13;;;;;;;1.13;1.03;;;;;;;12.67;75.27;94886.91;5066217;28;20182;-69
2022/01/04 07:38:39;;;;;;;1.63;1.10;;;;;;;12.96;74.56;94872.19;5066945;28;20843;-68
2022/01/04 07:41:05;;;;;;;1.40;1.10;;;;;;;12.95;73.97;94865.31;5065293;28;20424;-68
2022/01/04 07:43:31;;;;;;;4.73;2.57;;;;;;;12.89;74.65;94880.16;5068783;28;20404;-68
2022/01/04 07:45:57;;;;;;;1.30;1.07;;;;;;;12.77;74.96;94878.50;5073742;28;20182;-68
2022/01/04 07:48:22;;;;;;;2.13;1.77;;;;;;;12.54;76.23;94859.78;5074699;28;20432;-67
2022/01/04 07:50:49;;;;;;;4.47;1.90;;;;;;;12.86;74.56;94856.94;5074514;28;20332;-66
2022/01/04 07:53:15;;;;;;;1.43;1.00;;;;;;;13.10;73.12;94851.75;5077259;28;20217;-67
2022/01/04 07:55:41;;;;;;;1.10;0.90;;;;;;;12.97;73.84;94847.50;5074706;28;20413;-66
2022/01/04 07:58:06;;;;;;;2.67;1.10;;;;;;;12.89;74.58;94856.50;5061309;28;20203;-68
2022/01/04 08:00:32;;;;;;;2.57;1.20;;;;;;;13.15;73.31;94845.81;5055238;28;20214;-70
2022/01/04 08:02:58;;;;;;;2.50;1.50;;;;;;;13.35;72.44;94827.91;5062892;28;20193;-67
2022/01/04 08:05:24;;;;;;;1.90;1.50;;;;;;;13.28;73.27;94836.91;5074122;28;20281;-67
2022/01/04 08:07:50;;;;;;;2.17;1.00;;;;;;;13.27;72.88;94809.81;5073829;28;20265;-66
2022/01/04 08:10:16;;;;;;;2.53;1.30;;;;;;;13.18;74.02;94824.31;5070090;28;20433;-67
2022/01/04 08:12:42;;;;;;;4.50;1.00;;;;;;;13.34;72.88;94843.88;5068536;28;20413;-65
2022/01/04 08:15:09;;;;;;;1.30;1.20;;;;;;;13.47;72.04;94835.03;5073784;28;20930;-66
2022/01/04 08:17:36;;;;;;;1.13;1.03;;;;;;;13.00;73.62;94847.03;5073865;28;20452;-66
2022/01/04 08:20:03;;;;;;;1.43;1.00;;;;;;;13.19;73.21;94823.28;5073502;28;20495;-66
2022/01/04 08:22:32;;;;;;;1.90;1.30;;;;;;;13.19;72.45;94818.03;5068946;28;20476;-69
2022/01/04 08:25:08;;;;;;;3.33;1.23;;;;;;;13.61;71.67;94835.59;5073938;28;20456;-69
2022/01/04 08:27:34;;;;;;;1.57;1.20;;;;;;;13.38;72.24;94834.53;5053948;28;20431;-68
2022/01/04 08:29:59;;;;;;;6.03;1.40;;;;;;;13.13;72.80;94834.72;5073475;28;20899;-69
2022/01/04 08:32:25;;;;;;;2.40;1.10;;;;;;;12.97;73.68;94833.53;5072134;28;20425;-67
2022/01/04 08:34:51;;;;;;;1.63;1.17;;;;;;;13.38;72.85;94826.63;5073759;28;20178;-67
2022/01/04 08:37:17;;;;;;;6.40;1.20;;;;;;;13.77;70.74;94832.25;5070231;28;20183;-68
2022/01/04 08:39:43;;;;;;;5.93;1.23;;;;;;;13.78;70.49;94830.41;5062873;28;20557;-68
2022/01/04 08:42:08;;;;;;;1.30;1.00;;;;;;;13.52;70.80;94821.97;5062325;28;20282;-68
2022/01/04 08:44:39;;;;;;;1.67;1.33;;;;;;;13.22;71.96;94807.06;5065391;28;20784;-69
2022/01/04 08:47:06;;;;;;;1.70;1.50;;;;;;;12.94;73.60;94798.00;5073619;28;20194;-69
2022/01/04 08:49:32;;;;;;;1.30;1.10;;;;;;;13.62;71.68;94810.88;5059232;28;20441;-68
2022/01/04 08:51:57;;;;;;;1.50;1.40;;;;;;;13.46;71.51;94800.00;5070184;28;20420;-67
2022/01/04 08:54:23;;;;;;;2.70;1.20;;;;;;;13.29;71.66;94794.59;5065444;28;20178;-67
2022/01/04 08:56:48;;;;;;;2.10;1.30;;;;;;;13.58;70.59;94799.19;5072197;28;20546;-67
2022/01/04 08:59:14;;;;;;;1.73;0.83;;;;;;;13.90;70.20;94783.81;5067530;28;20234;-68
2022/01/04 09:01:40;;;;;;;2.70;1.20;;;;;;;13.94;69.61;94790.22;5068170;28;20529;-67
2022/01/04 09:04:06;;;;;;;2.90;1.00;;;;;;;13.73;69.96;94799.53;5057708;28;20195;-66
2022/01/04 09:06:33;;;;;;;2.27;1.33;;;;;;;13.58;70.03;94805.28;5073839;28;20453;-67
2022/01/04 09:08:59;;;;;;;2.40;1.37;;;;;;;13.88;69.20;94793.78;5073474;28;20423;-67
2022/01/04 09:11:25;;;;;;;2.47;1.53;;;;;;;13.24;70.69;94797.09;5072815;28;20935;-67
2022/01/04 09:13:55;;;;;;;1.30;1.20;;;;;;;13.69;70.12;94805.50;5060942;28;20440;-67
2022/01/04 09:19:05;;;;;;;1.20;1.10;;;;;;;13.20;71.33;94803.88;5072450;28;20993;-66
2022/01/04 09:21:31;;;;;;;3.60;1.00;;;;;;;13.43;70.46;94808.34;5072469;28;20520;-68
2022/01/04 09:24:02;;;;;;;1.10;1.00;;;;;;;13.61;70.46;94794.28;5069209;28;20567;-69
2022/01/04 09:26:28;;;;;;;2.73;1.23;;;;;;;13.47;70.78;94790.28;5070372;28;20185;-65
2022/01/04 09:28:54;;;;;;;1.80;1.40;;;;;;;13.81;69.46;94778.09;5072553;28;20417;-67
2022/01/04 09:31:21;;;;;;;2.80;1.40;;;;;;;13.46;71.56;94778.16;5072756;28;20855;-67
2022/01/04 09:33:47;;;;;;;3.53;1.60;;;;;;;13.45;72.09;94776.56;5072379;28;20425;-68
2022/01/04 09:36:12;;;;;;;4.50;1.40;;;;;;;13.54;71.90;94772.56;5060374;28;20939;-66
2022/01/04 09:38:38;;;;;;;3.90;1.40;;;;;;;13.39;72.76;94775.63;5066752;28;20618;-67
2022/01/04 09:41:04;;;;;;;2.30;1.07;;;;;;;13.73;71.18;94775.84;5065612;28;20204;-67
2022/01/04 09:43:30;;;;;;;1.50;1.07;;;;;;;13.78;71.68;94785.69;5072549;28;20544;-67
2022/01/04 09:45:56;;;;;;;1.20;0.90;;;;;;;13.18;72.74;94784.88;5070927;28;20257;-66
2022/01/04 09:48:21;;;;;;;1.20;1.10;;;;;;;13.14;73.34;94783.72;5072332;28;20962;-69
2022/01/04 09:50:48;;;;;;;3.57;1.20;;;;;;;13.14;73.09;94781.09;5070834;28;20297;-68
2022/01/04 09:53:19;;;;;;;2.10;1.10;;;;;;;13.46;72.81;94784.22;5067289;28;20261;-68
2022/01/04 09:55:48;;;;;;;1.70;1.40;;;;;;;13.67;72.48;94777.56;5070673;28;20515;-69
2022/01/04 09:58:13;;;;;;;2.07;1.17;;;;;;;13.86;71.33;94777.41;5071249;28;20460;-71
2022/01/04 10:00:39;;;;;;;2.77;1.70;;;;;;;13.55;72.41;94776.78;5071154;28;21072;-69
2022/01/04 10:03:11;;;;;;;1.93;1.33;;;;;;;13.55;72.70;94779.41;5071619;28;20188;-67
2022/01/04 10:05:37;;;;;;;1.60;1.50;;;;;;;13.70;72.19;94778.94;5071867;28;20196;-70
2022/01/04 10:08:08;;;;;;;2.00;1.40;;;;;;;13.50;72.47;94766.94;5063161;28;20421;-69
2022/01/04 10:10:34;;;;;;;1.30;1.20;;;;;;;12.92;74.62;94763.25;5053688;28;20217;-70
2022/01/04 10:13:04;;;;;;;3.40;1.80;;;;;;;13.31;73.83;94761.00;5071741;28;20456;-69
2022/01/04 10:15:38;;;;;;;3.80;1.60;;;;;;;13.44;72.88;94753.91;5062602;28;20467;-69
2022/01/04 10:18:18;;;;;;;1.87;1.30;;;;;;;13.56;72.57;94759.97;5048954;28;20543;-69
2022/01/04 10:20:47;;;;;;;3.90;1.30;;;;;;;13.59;72.16;94742.91;5049438;28;20447;-70
2022/01/04 10:23:16;;;;;;;1.37;1.27;;;;;;;13.41;72.39;94752.56;5070257;28;20525;-68
2022/01/04 10:25:42;;;;;;;1.83;1.50;;;;;;;13.28;72.06;94732.50;5056121;28;20435;-68
2022/01/04 10:28:08;;;;;;;3.40;1.73;;;;;;;13.57;71.61;94751.03;5057026;28;20449;-70
2022/01/04 10:30:39;;;;;;;3.63;1.60;;;;;;;13.35;72.02;94748.16;5071183;28;20445;-69
2022/01/04 10:33:11;;;;;;;1.77;1.50;;;;;;;13.31;71.99;94723.34;5071259;28;20431;-69
2022/01/04 10:35:43;;;;;;;3.90;1.17;;;;;;;13.51;71.04;94710.69;5071238;28;20570;-68
2022/01/04 10:38:14;;;;;;;2.27;1.60;;;;;;;13.67;70.58;94718.88;5062239;28;20490;-68
2022/01/04 10:40:43;;;;;;;5.30;1.53;;;;;;;13.03;72.11;94711.72;5062029;28;20489;-67
2022/01/04 10:43:11;;;;;;;2.17;1.50;;;;;;;13.79;70.26;94726.75;5068211;28;20982;-68
2022/01/04 10:45:38;;;;;;;3.50;2.30;;;;;;;13.93;69.77;94722.81;5059619;28;20802;-67
2022/01/04 10:48:11;;;;;;;4.10;1.50;;;;;;;13.42;70.44;94713.88;5068522;28;20432;-68
2022/01/04 10:50:37;;;;;;;2.20;1.73;;;;;;;13.74;69.91;94729.25;5068995;28;20456;-67
2022/01/04 10:53:04;;;;;;;2.07;1.70;;;;;;;13.15;71.19;94738.00;5060589;28;20428;-66
2022/01/04 10:55:34;;;;;;;3.40;2.07;;;;;;;13.90;68.87;94731.16;5071175;28;20312;-67
2022/01/04 10:58:01;;;;;;;2.40;1.80;;;;;;;13.62;69.84;94724.81;5068217;28;20424;-69
2022/01/04 11:00:27;;;;;;;2.23;1.83;;;;;;;13.44;69.81;94712.63;5070749;28;20586;-68
2022/01/04 11:02:53;;;;;;;3.30;1.50;;;;;;;14.01;68.64;94697.94;5064467;28;20440;-68
2022/01/04 11:05:21;;;;;;;1.93;1.50;;;;;;;14.02;67.85;94698.72;5077538;28;20424;-69
2022/01/04 11:07:59;;;;;;;6.47;1.83;;;;;;;13.60;69.12;94707.69;5070904;28;20202;-69
2022/01/04 11:10:28;;;;;;;2.50;2.00;;;;;;;13.48;69.54;94726.13;5069925;28;20519;-68
2022/01/04 11:12:56;;;;;;;1.77;1.40;;;;;;;13.66;68.58;94712.81;5078409;28;20825;-68
2022/01/04 11:15:21;;;;;;;4.63;2.03;;;;;;;14.18;67.75;94707.72;5077212;28;20421;-68
2022/01/04 11:17:47;;;;;;;2.90;1.67;;;;;;;13.89;67.90;94713.00;5078335;28;20796;-68
2022/01/04 11:20:13;;;;;;;2.03;1.83;;;;;;;14.04;68.30;94713.28;5076418;28;20222;-67
2022/01/04 11:22:40;;;;;;;3.30;2.57;;;;;;;14.07;68.19;94712.00;5073611;28;20270;-67
2022/01/04 11:25:07;;;;;;;1.90;1.70;;;;;;;13.60;69.56;94718.19;5076577;28;20538;-69
2022/01/04 11:27:34;;;;;;;3.13;1.90;;;;;;;13.59;69.47;94708.69;5075382;28;20879;-66
2022/01/04 11:30:03;;;;;;;2.97;1.77;;;;;;;13.50;70.31;94713.53;5077943;28;20440;-67
2022/01/04 11:32:29;;;;;;;2.00;1.60;;;;;;;13.75;69.93;94707.16;5059614;28;20949;-68
2022/01/04 11:35:12;;;;;;;2.70;1.60;;;;;;;13.66;70.68;94702.28;5077547;28;20424;-69
2022/01/04 11:37:41;;;;;;;2.73;2.00;;;;;;;13.42;71.43;94701.53;5076095;28;20224;-69